Time;durP1;ratioP1;P1;durP2;ratioP2;P2;SDS_P1;SDS_P2;PMS_P1;PMS_P2;Temp;Humidity;BMP_temperature;BMP_pressure;BME280_temperature;BME280_humidity;BME280_pressure;Samples;Min_cycle;Max_cycle;Signal;HPM_P1;HPM_P2
2022/09/01 00:02:28;;;;;;;4.30;2.00;;;;;;;14.07;70.88;98741.19;105207;1287;26097;-70
2022/09/01 00:04:57;;;;;;;3.20;1.30;;;;;;;14.04;70.90;98738.65;104969;1284;23091;-70
2022/09/01 00:07:34;;;;;;;4.80;1.40;;;;;;;14.02;70.99;98734.59;105129;1284;22716;-70
2022/09/01 00:10:05;;;;;;;3.20;1.30;;;;;;;14.02;71.07;98732.13;104909;1284;22560;-70
2022/09/01 00:12:36;;;;;;;4.00;1.60;;;;;;;14.03;71.11;98732.84;104948;1284;22574;-70
2022/09/01 00:15:08;;;;;;;4.80;1.50;;;;;;;14.05;71.06;98733.41;104985;1287;25085;-70
2022/09/01 00:17:35;;;;;;;3.00;1.80;;;;;;;14.05;71.08;98730.94;104933;1288;22711;-70
2022/09/01 00:20:04;;;;;;;3.40;1.50;;;;;;;14.06;71.06;98730.55;104859;1288;22883;-70
2022/09/01 00:22:32;;;;;;;6.00;1.50;;;;;;;14.03;71.13;98728.02;104909;1289;24315;-70
2022/09/01 00:25:00;;;;;;;2.90;1.70;;;;;;;14.00;71.01;98728.16;104949;1284;25383;-70
2022/09/01 00:27:27;;;;;;;4.70;1.30;;;;;;;13.98;71.24;98728.95;104913;1285;22748;-70
2022/09/01 00:29:55;;;;;;;2.60;1.30;;;;;;;13.95;71.14;98724.00;104951;1284;25308;-70
2022/09/01 00:32:25;;;;;;;2.80;1.40;;;;;;;13.91;71.24;98726.38;104953;1284;25261;-70
2022/09/01 00:34:52;;;;;;;3.10;1.40;;;;;;;13.88;71.37;98726.85;105069;1288;22537;-70
2022/09/01 00:37:19;;;;;;;2.60;1.70;;;;;;;13.86;71.53;98731.27;104889;1288;25393;-69
2022/09/01 00:39:46;;;;;;;4.40;1.50;;;;;;;13.84;71.44;98729.93;103850;1284;1496834;-70
2022/09/01 00:42:13;;;;;;;2.70;1.70;;;;;;;13.81;71.49;98727.89;104878;1287;24300;-70
2022/09/01 00:44:40;;;;;;;3.20;1.50;;;;;;;13.78;71.68;98724.52;104869;1285;22551;-70
2022/09/01 00:47:06;;;;;;;3.00;1.40;;;;;;;13.75;71.83;98726.02;104933;1284;23018;-70
2022/09/01 00:49:42;;;;;;;2.50;1.50;;;;;;;13.73;71.87;98722.23;104924;1284;25364;-70
2022/09/01 00:52:14;;;;;;;2.10;1.30;;;;;;;13.69;71.76;98725.79;104918;1284;22567;-70
2022/09/01 00:54:49;;;;;;;3.40;1.50;;;;;;;13.66;71.84;98721.84;104941;1284;24319;-70
2022/09/01 00:57:16;;;;;;;3.40;1.50;;;;;;;13.65;72.06;98720.89;104989;1284;22762;-70
2022/09/01 00:59:59;;;;;;;1.90;1.20;;;;;;;13.66;72.15;98718.32;104928;1287;22587;-70
2022/09/01 01:02:27;;;;;;;3.00;1.70;;;;;;;13.63;72.00;98719.66;104782;1284;24434;-70
2022/09/01 01:04:58;;;;;;;3.40;1.40;;;;;;;13.62;72.26;98722.27;104907;1287;22557;-70
2022/09/01 01:07:27;;;;;;;3.70;1.50;;;;;;;13.60;72.07;98718.26;104957;1287;22590;-70
2022/09/01 01:09:54;;;;;;;2.90;1.50;;;;;;;13.58;72.12;98722.06;105002;1287;22713;-70
2022/09/01 01:12:22;;;;;;;3.20;1.50;;;;;;;13.55;72.44;98726.20;105040;1287;25143;-70
2022/09/01 01:14:55;;;;;;;2.20;1.30;;;;;;;13.53;72.31;98726.17;104962;1284;22660;-70
2022/09/01 01:17:22;;;;;;;3.00;1.80;;;;;;;13.53;72.39;98724.54;105019;1284;25541;-70
2022/09/01 01:23:09;;;;;;;2.30;1.30;;;;;;;13.56;72.38;98726.64;105067;1284;25274;-70
2022/09/01 01:25:48;;;;;;;2.50;1.30;;;;;;;13.53;72.27;98730.27;104972;1284;25277;-71
2022/09/01 01:28:20;;;;;;;4.00;1.60;;;;;;;13.48;72.27;98726.07;105007;1284;25440;-71
2022/09/01 01:30:54;;;;;;;4.60;1.50;;;;;;;13.41;72.39;98725.29;104976;1284;23102;-71
2022/09/01 01:33:25;;;;;;;3.20;1.40;;;;;;;13.36;72.59;98725.56;105217;1281;25413;-70
2022/09/01 01:35:56;;;;;;;1.90;1.40;;;;;;;13.35;72.79;98728.95;105016;1284;22736;-71
2022/09/01 01:38:29;;;;;;;4.40;1.80;;;;;;;13.36;72.90;98728.56;105382;1283;24289;-71
2022/09/01 01:41:00;;;;;;;2.90;1.60;;;;;;;13.36;72.73;98726.16;105337;1283;22522;-71
2022/09/01 01:43:28;;;;;;;3.20;1.60;;;;;;;13.34;72.87;98723.96;105406;1283;22554;-71
2022/09/01 01:46:01;;;;;;;3.90;1.40;;;;;;;13.31;72.62;98724.46;105371;1281;22860;-70
2022/09/01 01:48:38;;;;;;;3.70;1.50;;;;;;;13.26;72.85;98720.33;105433;1281;25310;-71
2022/09/01 01:51:06;;;;;;;4.00;1.30;;;;;;;13.26;72.93;98717.88;105239;1281;22566;-71
2022/09/01 01:53:33;;;;;;;2.80;1.60;;;;;;;13.26;72.93;98720.60;105387;1281;22863;-71
2022/09/01 01:56:03;;;;;;;2.60;1.50;;;;;;;13.22;73.11;98717.66;105187;1283;22559;-71
2022/09/01 01:58:34;;;;;;;2.50;1.30;;;;;;;13.21;73.27;98716.95;105182;1283;25258;-71
2022/09/01 02:01:09;;;;;;;2.40;1.40;;;;;;;13.22;73.40;98720.00;105250;1283;25259;-71
2022/09/01 02:03:37;;;;;;;3.10;1.50;;;;;;;13.18;73.17;98722.76;105375;1283;22732;-71
2022/09/01 02:06:10;;;;;;;3.00;1.80;;;;;;;13.14;73.30;98719.65;105441;1281;25248;-71
2022/09/01 02:08:39;;;;;;;3.60;1.40;;;;;;;13.09;73.33;98723.81;105284;1281;24382;-71
2022/09/01 02:11:07;;;;;;;2.90;1.40;;;;;;;13.06;73.65;98722.77;105298;1281;26495;-70
2022/09/01 02:13:34;;;;;;;3.10;1.40;;;;;;;13.03;73.74;98721.54;105415;1281;23314;-70
2022/09/01 02:16:06;;;;;;;2.10;1.60;;;;;;;13.02;73.94;98723.00;105162;1281;22563;-71
2022/09/01 02:18:37;;;;;;;4.40;1.70;;;;;;;13.04;73.67;98722.91;105202;1283;25309;-70
2022/09/01 02:21:12;;;;;;;2.40;1.40;;;;;;;13.00;73.61;98726.90;105363;1282;22556;-71
2022/09/01 02:23:40;;;;;;;2.10;1.30;;;;;;;12.96;74.00;98726.64;105214;1281;25430;-70
2022/09/01 02:26:10;;;;;;;6.50;1.60;;;;;;;12.96;74.20;98723.91;105344;1283;25660;-71
2022/09/01 02:28:41;;;;;;;;;;;;;;;12.96;74.27;98721.73;105220;1284;24248;-71
2022/09/01 02:31:10;;;;;;;2.70;1.30;;;;;;;12.96;74.56;98723.91;105402;1283;22698;-71
2022/09/01 02:33:38;;;;;;;;;;;;;;;12.99;74.48;98728.75;105416;1281;22744;-71
2022/09/01 02:36:12;;;;;;;2.90;1.80;;;;;;;13.01;74.43;98724.20;105312;1283;22626;-71
2022/09/01 02:38:43;;;;;;;1.60;1.20;;;;;;;13.02;74.54;98726.12;105179;1283;22550;-71
2022/09/01 02:41:13;;;;;;;2.20;1.40;;;;;;;13.01;74.21;98726.85;105276;1281;22555;-71
2022/09/01 02:43:42;;;;;;;3.60;1.30;;;;;;;13.01;74.36;98730.80;105179;1281;22584;-71
2022/09/01 02:46:13;;;;;;;3.20;1.50;;;;;;;13.01;74.41;98729.27;105318;1283;24375;-71
2022/09/01 02:48:44;;;;;;;4.20;1.50;;;;;;;13.01;74.62;98728.84;105340;1283;23010;-71
2022/09/01 02:51:15;;;;;;;2.10;1.40;;;;;;;13.02;74.39;98726.71;105180;1283;25312;-70
2022/09/01 02:53:49;;;;;;;5.50;1.50;;;;;;;13.03;74.44;98731.91;105278;1283;22549;-71
2022/09/01 02:56:17;;;;;;;3.40;1.20;;;;;;;13.03;74.68;98726.95;105166;1283;25232;-71
2022/09/01 02:58:45;;;;;;;1.90;1.50;;;;;;;13.02;74.83;98727.22;105444;1281;22546;-70
2022/09/01 03:01:26;;;;;;;1.90;1.30;;;;;;;13.02;74.70;98723.00;105495;1281;24196;-70
2022/09/01 03:03:56;;;;;;;3.00;1.40;;;;;;;13.02;74.70;98723.65;105539;1281;22750;-70
2022/09/01 03:06:24;;;;;;;3.40;1.80;;;;;;;13.03;74.98;98719.13;105575;1281;25431;-70
2022/09/01 03:09:00;;;;;;;3.60;1.60;;;;;;;13.04;74.66;98718.26;105401;1283;22648;-70
2022/09/01 03:11:30;;;;;;;2.10;2.00;;;;;;;13.04;74.87;98713.29;105556;1283;24385;-70
2022/09/01 03:13:58;;;;;;;2.60;1.50;;;;;;;13.03;74.92;98708.46;105506;1283;22761;-70
2022/09/01 03:16:24;;;;;;;4.90;1.80;;;;;;;13.03;75.01;98709.73;105195;1283;25247;-71
2022/09/01 03:18:52;;;;;;;3.60;1.20;;;;;;;13.02;74.92;98711.95;105175;1281;25389;-71
2022/09/01 03:21:20;;;;;;;4.00;1.50;;;;;;;13.03;75.24;98716.23;105422;1281;25254;-71
2022/09/01 03:23:48;;;;;;;2.40;1.40;;;;;;;13.02;75.30;98715.89;105408;1281;22583;-70
2022/09/01 03:26:18;;;;;;;5.90;1.40;;;;;;;13.03;75.24;98723.88;105181;1281;24357;-70
2022/09/01 03:28:46;;;;;;;2.90;1.50;;;;;;;13.02;75.27;98722.56;105210;1283;23373;-71
2022/09/01 03:31:14;;;;;;;2.70;1.60;;;;;;;13.02;75.46;98723.70;105156;1283;26952;-69
2022/09/01 03:33:41;;;;;;;2.40;1.30;;;;;;;13.01;75.29;98722.00;105484;1283;22629;-70
2022/09/01 03:36:17;;;;;;;1.60;1.20;;;;;;;13.01;75.31;98724.40;105351;1283;22570;-72
2022/09/01 03:38:50;;;;;;;1.90;1.10;;;;;;;12.99;75.23;98722.58;105145;1281;22682;-69
2022/09/01 03:41:23;;;;;;;2.80;1.40;;;;;;;12.99;75.17;98726.30;105256;1281;25369;-70
2022/09/01 03:43:55;;;;;;;2.30;1.40;;;;;;;12.99;75.00;98728.70;105400;1281;22683;-70
2022/09/01 03:46:30;;;;;;;3.10;2.20;;;;;;;12.98;74.98;98723.89;105039;1281;24306;-70
2022/09/01 03:49:04;;;;;;;3.50;2.10;;;;;;;12.97;75.09;98722.23;105395;1281;25313;-70
2022/09/01 03:51:33;;;;;;;3.70;2.00;;;;;;;12.94;75.26;98720.59;105536;1281;22561;-70
2022/09/01 03:54:03;;;;;;;3.20;1.80;;;;;;;12.91;75.16;98727.06;105171;1283;24497;-70
2022/09/01 03:56:30;;;;;;;3.20;1.40;;;;;;;12.89;75.09;98732.52;105457;1281;22576;-70
2022/09/01 03:58:58;;;;;;;3.00;1.60;;;;;;;12.87;75.42;98730.63;105467;1281;22553;-70
2022/09/01 04:01:31;;;;;;;4.90;1.50;;;;;;;12.87;75.35;98729.25;105477;1280;23050;-70
2022/09/01 04:04:00;;;;;;;4.60;1.60;;;;;;;12.87;75.35;98727.07;105502;1281;22615;-70
2022/09/01 04:06:31;;;;;;;6.30;2.00;;;;;;;12.85;75.61;98730.60;105466;1281;25300;-70
2022/09/01 04:09:01;;;;;;;2.70;1.40;;;;;;;12.83;75.48;98729.48;105138;1282;24318;-70
2022/09/01 04:11:32;;;;;;;2.80;1.50;;;;;;;12.81;75.37;98734.36;105368;1283;22532;-70
2022/09/01 04:13:59;;;;;;;4.00;1.70;;;;;;;12.81;75.65;98737.48;105414;1283;23488;-70
2022/09/01 04:19:25;;;;;;;4.70;1.80;;;;;;;12.82;75.64;98737.89;105327;1281;22812;-70
2022/09/01 04:21:59;;;;;;;3.80;1.50;;;;;;;12.80;75.55;98739.45;105414;1281;22544;-70
2022/09/01 04:24:33;;;;;;;3.70;1.90;;;;;;;12.80;75.65;98737.70;105420;1281;22560;-70
2022/09/01 04:27:02;;;;;;;2.70;1.50;;;;;;;12.79;75.62;98734.55;105470;1281;25384;-70
2022/09/01 04:29:31;;;;;;;3.00;1.60;;;;;;;12.76;75.34;98733.16;105476;1281;25312;-70
2022/09/01 04:32:04;;;;;;;2.40;1.50;;;;;;;12.72;75.61;98734.91;105512;1281;24088;-71
2022/09/01 04:34:39;;;;;;;2.40;1.80;;;;;;;12.70;75.31;98735.55;105214;1281;25365;-71
2022/09/01 04:37:07;;;;;;;3.40;2.00;;;;;;;12.68;75.78;98735.40;105447;1280;22509;-70
2022/09/01 04:39:35;;;;;;;2.40;1.80;;;;;;;12.69;75.88;98737.21;105329;1281;24265;-70
2022/09/01 04:42:07;;;;;;;6.00;2.00;;;;;;;12.72;75.88;98737.10;105057;1283;25356;-70
2022/09/01 04:44:35;;;;;;;3.30;1.60;;;;;;;12.69;75.79;98739.36;105339;1283;24294;-71
2022/09/01 04:47:09;;;;;;;3.60;1.50;;;;;;;12.68;75.98;98744.91;105386;1283;24313;-70
2022/09/01 04:49:37;;;;;;;3.30;1.60;;;;;;;12.71;76.12;98747.52;105533;1280;25461;-70
2022/09/01 04:52:04;;;;;;;3.30;1.50;;;;;;;12.74;76.11;98749.42;105353;1281;24262;-70
2022/09/01 04:54:32;;;;;;;2.70;1.80;;;;;;;12.79;76.27;98750.70;105357;1280;24258;-70
2022/09/01 04:56:59;;;;;;;6.10;1.90;;;;;;;12.81;75.95;98752.14;105114;1281;24292;-72
2022/09/01 04:59:29;;;;;;;3.80;1.70;;;;;;;12.81;76.01;98747.00;105335;1281;22762;-70
2022/09/01 05:02:00;;;;;;;3.90;1.70;;;;;;;12.81;76.00;98747.89;105013;1281;22538;-72
2022/09/01 05:04:32;;;;;;;3.70;1.70;;;;;;;12.81;75.92;98742.46;105350;1281;22550;-71
2022/09/01 05:07:02;;;;;;;4.10;1.50;;;;;;;12.79;75.58;98743.69;105432;1281;25254;-70
2022/09/01 05:09:36;;;;;;;3.00;1.60;;;;;;;12.76;75.82;98747.14;105350;1281;22550;-71
2022/09/01 05:12:15;;;;;;;2.60;1.40;;;;;;;12.73;76.20;98747.29;105392;1281;22544;-70
2022/09/01 05:14:47;;;;;;;3.80;1.50;;;;;;;12.72;76.06;98745.52;105386;1281;24386;-70
2022/09/01 05:17:17;;;;;;;4.30;2.00;;;;;;;12.72;76.06;98747.65;105308;1281;22536;-71
2022/09/01 05:19:49;;;;;;;3.50;1.70;;;;;;;12.73;76.19;98743.84;105331;1280;23398;-70
2022/09/01 05:22:21;;;;;;;4.40;2.30;;;;;;;12.78;76.29;98744.21;105415;1281;25433;-70
2022/09/01 05:25:03;;;;;;;3.10;2.10;;;;;;;12.84;76.43;98740.15;105194;1281;22622;-70
2022/09/01 05:27:31;;;;;;;3.40;1.60;;;;;;;12.88;76.19;98737.42;104998;1284;22563;-70
2022/09/01 05:30:00;;;;;;;3.80;1.60;;;;;;;12.96;76.03;98736.75;104986;1282;25543;-71
2022/09/01 05:32:27;;;;;;;2.90;1.50;;;;;;;13.04;76.33;98737.23;105615;1281;22557;-70
2022/09/01 05:34:55;;;;;;;4.60;1.50;;;;;;;13.08;75.66;98738.23;105772;1281;24236;-70
2022/09/01 05:37:22;;;;;;;4.50;1.60;;;;;;;13.10;75.51;98737.33;105546;1281;24334;-71
2022/09/01 05:39:51;;;;;;;1.90;1.50;;;;;;;13.16;75.73;98736.24;105423;1281;22746;-72
2022/09/01 05:42:18;;;;;;;2.60;1.50;;;;;;;13.26;75.56;98739.20;105447;1281;29700;-71
2022/09/01 05:44:46;;;;;;;2.60;1.30;;;;;;;13.33;75.38;98737.45;105323;1280;22752;-70
2022/09/01 05:47:15;;;;;;;1.90;1.20;;;;;;;13.45;75.53;98740.06;105653;1280;22590;-70
2022/09/01 05:49:43;;;;;;;4.10;1.40;;;;;;;13.52;74.64;98736.84;105330;1280;22563;-70
2022/09/01 05:52:10;;;;;;;1.60;1.20;;;;;;;13.57;74.48;98739.52;105445;1280;22532;-70
2022/09/01 05:54:37;;;;;;;2.50;1.50;;;;;;;13.62;75.73;98744.67;105590;1280;25066;-69
2022/09/01 05:57:06;;;;;;;2.80;1.30;;;;;;;13.88;76.40;98747.39;105249;1281;24318;-69
2022/09/01 05:59:33;;;;;;;4.00;1.20;;;;;;;14.18;75.19;98744.73;105391;1280;24321;-70
2022/09/01 06:02:16;;;;;;;4.10;1.50;;;;;;;14.37;73.80;98745.48;105437;1281;23932;-70
2022/09/01 06:04:44;;;;;;;2.90;1.60;;;;;;;14.45;73.19;98748.51;105456;1280;24402;-70
2022/09/01 06:07:17;;;;;;;4.00;1.40;;;;;;;14.55;73.23;98748.52;105423;1280;25349;-70
2022/09/01 06:09:49;;;;;;;3.10;1.20;;;;;;;14.65;73.07;98745.38;105813;1280;25312;-70
2022/09/01 06:12:22;;;;;;;1.40;1.30;;;;;;;14.73;72.95;98744.50;105647;1280;22707;-70
2022/09/01 06:14:52;;;;;;;2.60;1.20;;;;;;;14.82;72.79;98743.02;105322;1283;24389;-69
2022/09/01 06:17:25;;;;;;;3.70;1.40;;;;;;;14.85;71.87;98746.86;105185;1283;22830;-70
2022/09/01 06:19:55;;;;;;;2.90;1.10;;;;;;;14.90;71.61;98749.48;105064;1284;25228;-70
2022/09/01 06:22:25;;;;;;;2.40;1.30;;;;;;;14.95;71.26;98755.97;105538;1281;23755;-71
2022/09/01 06:24:53;;;;;;;2.40;1.30;;;;;;;14.98;70.91;98756.31;105272;1282;25310;-70
2022/09/01 06:27:20;;;;;;;1.80;1.10;;;;;;;15.03;70.43;98760.56;105295;1281;22679;-70
2022/09/01 06:29:52;;;;;;;6.10;1.60;;;;;;;15.06;70.43;98760.30;105426;1281;25411;-70
2022/09/01 06:32:19;;;;;;;3.40;1.30;;;;;;;15.09;70.80;98763.29;105480;1281;22567;-70
2022/09/01 06:34:50;;;;;;;3.10;1.00;;;;;;;15.15;70.80;98767.48;105125;1283;22555;-70
2022/09/01 06:37:21;;;;;;;2.60;1.10;;;;;;;15.23;71.15;98763.01;107324;1281;22547;-70
2022/09/01 06:39:50;;;;;;;2.50;1.20;;;;;;;15.30;70.95;98759.03;105455;1281;24391;-70
2022/09/01 06:42:18;;;;;;;2.40;1.30;;;;;;;15.39;70.48;98760.21;105444;1280;22542;-69
2022/09/01 06:44:53;;;;;;;3.30;1.40;;;;;;;15.43;69.40;98764.12;105030;1282;25374;-70
2022/09/01 06:47:20;;;;;;;5.20;1.30;;;;;;;15.41;68.94;98768.69;104949;1282;24305;-70
2022/09/01 06:49:47;;;;;;;1.40;1.10;;;;;;;15.41;69.34;98767.86;105331;1281;25421;-70
2022/09/01 06:52:19;;;;;;;2.20;1.30;;;;;;;15.43;69.40;98767.52;105344;1280;24224;-69
2022/09/01 06:54:47;;;;;;;1.70;1.10;;;;;;;15.46;70.38;98765.77;105048;1280;22564;-69
2022/09/01 06:57:14;;;;;;;1.60;1.00;;;;;;;15.54;70.28;98773.16;105436;1280;25503;-70
2022/09/01 06:59:42;;;;;;;5.60;0.80;;;;;;;15.61;69.84;98771.27;105404;1281;23312;-70
2022/09/01 07:02:15;;;;;;;2.50;0.90;;;;;;;15.69;69.66;98779.73;105494;1280;25272;-69
2022/09/01 07:05:06;;;;;;;1.50;0.80;;;;;;;15.78;69.02;98778.80;104922;1281;22694;-69
2022/09/01 07:07:34;;;;;;;3.10;1.20;;;;;;;15.83;69.12;98781.45;105417;1280;22723;-69
2022/09/01 07:10:26;;;;;;;1.70;1.10;;;;;;;15.89;68.69;98782.89;105351;1281;22564;-69
2022/09/01 07:13:00;;;;;;;2.00;0.90;;;;;;;15.90;67.92;98784.27;105292;1280;26687;-70
2022/09/01 07:15:29;;;;;;;3.70;1.20;;;;;;;15.92;67.32;98779.73;105284;1281;23397;-70
2022/09/01 07:17:57;;;;;;;1.90;0.90;;;;;;;15.95;67.72;98778.67;105031;1282;23370;-70
2022/09/01 07:20:28;;;;;;;1.60;1.00;;;;;;;16.01;67.15;98781.21;104952;1282;22568;-69
2022/09/01 07:22:56;;;;;;;3.50;1.20;;;;;;;16.06;67.32;98783.14;105315;1282;22821;-70
2022/09/01 07:25:23;;;;;;;3.20;1.10;;;;;;;16.15;67.50;98786.61;105036;1282;22644;-70
2022/09/01 07:28:07;;;;;;;1.30;0.80;;;;;;;16.21;66.85;98785.19;105416;1281;22592;-69
2022/09/01 07:30:42;;;;;;;3.60;0.70;;;;;;;16.26;66.51;98786.84;105057;1282;22555;-69
2022/09/01 07:33:10;;;;;;;1.90;0.90;;;;;;;16.31;66.31;98784.92;104996;1281;22615;-69
2022/09/01 07:35:40;;;;;;;1.10;0.80;;;;;;;16.34;65.91;98787.28;105393;1281;25247;-69
2022/09/01 07:38:08;;;;;;;3.50;0.80;;;;;;;16.40;65.70;98787.55;105914;1280;22570;-70
2022/09/01 07:40:37;;;;;;;1.20;0.80;;;;;;;16.52;66.19;98792.60;105652;1280;24092;-70
2022/09/01 07:43:23;;;;;;;2.50;0.70;;;;;;;16.63;66.11;98791.45;105406;1280;22794;-70
2022/09/01 07:46:10;;;;;;;;;;;;;;;16.73;65.44;98790.82;105394;1280;22620;-70
2022/09/01 07:48:38;;;;;;;3.00;0.80;;;;;;;16.77;65.24;98790.23;105368;1281;25255;-70
2022/09/01 07:51:05;;;;;;;4.10;0.80;;;;;;;16.81;65.31;98787.95;105298;1283;22563;-70
2022/09/01 07:53:34;;;;;;;2.30;0.80;;;;;;;16.81;64.94;98783.27;104776;1281;137680;-70
2022/09/01 07:56:08;;;;;;;3.50;0.80;;;;;;;16.80;64.42;98780.27;105298;1281;137123;-70
2022/09/01 07:58:40;;;;;;;0.90;0.70;;;;;;;16.84;64.73;98780.98;105349;1283;25262;-70
2022/09/01 08:01:10;;;;;;;1.70;0.90;;;;;;;16.88;63.98;98782.24;105268;1281;137205;-70
2022/09/01 08:03:40;;;;;;;2.20;1.50;;;;;;;16.91;63.74;98774.31;105435;1280;24256;-70
2022/09/01 08:06:10;;;;;;;1.00;0.80;;;;;;;16.94;64.00;98771.61;105287;1280;137769;-70
2022/09/01 08:08:38;;;;;;;2.20;0.70;;;;;;;17.01;64.23;98772.20;105406;1280;24229;-70
2022/09/01 08:11:07;;;;;;;1.40;0.60;;;;;;;17.09;64.04;98771.08;105361;1280;137579;-71
2022/09/01 08:13:39;;;;;;;2.10;0.80;;;;;;;17.18;63.30;98771.33;105387;1281;24377;-71
2022/09/01 08:16:08;;;;;;;1.30;0.90;;;;;;;17.27;62.91;98769.09;105343;1281;24243;-70
2022/09/01 08:18:35;;;;;;;1.90;0.90;;;;;;;17.34;62.27;98767.41;105356;1281;137962;-71
2022/09/01 08:21:13;;;;;;;1.10;0.80;;;;;;;17.43;62.61;98771.55;105206;1280;24427;-71
2022/09/01 08:24:07;;;;;;;2.10;0.90;;;;;;;17.55;62.61;98773.48;105062;1280;137979;-71
2022/09/01 08:26:35;;;;;;;;;;;;;;;17.65;61.68;98768.67;105430;1281;22583;-71
2022/09/01 08:29:03;;;;;;;1.50;0.70;;;;;;;17.72;61.18;98768.81;105302;1281;124006;-71
2022/09/01 08:31:36;;;;;;;1.80;0.60;;;;;;;17.76;60.50;98768.52;105406;1281;24322;-71
2022/09/01 08:34:06;;;;;;;2.50;0.70;;;;;;;17.74;58.52;98764.07;105118;1281;25454;-71
2022/09/01 08:36:33;;;;;;;0.70;0.60;;;;;;;17.71;59.13;98763.92;105243;1281;137738;-70
2022/09/01 08:39:01;;;;;;;1.10;0.60;;;;;;;17.67;59.21;98762.73;105331;1281;22573;-71
2022/09/01 08:42:04;;;;;;;0.60;0.50;;;;;;;17.71;59.05;98761.88;104867;1282;137827;-70
2022/09/01 08:44:39;;;;;;;1.00;0.70;;;;;;;17.73;58.32;98763.68;105359;1281;22745;-71
2022/09/01 08:47:11;;;;;;;2.80;0.50;;;;;;;17.79;57.96;98761.33;105226;1283;137836;-71
2022/09/01 08:49:39;;;;;;;1.00;0.60;;;;;;;17.73;57.61;98760.98;105085;1282;25683;-71
2022/09/01 08:52:18;;;;;;;1.00;0.50;;;;;;;17.75;57.95;98765.16;105440;1281;22552;-71
2022/09/01 08:54:56;;;;;;;2.10;0.60;;;;;;;17.83;58.27;98759.77;105215;1281;137458;-70
2022/09/01 08:57:35;;;;;;;0.50;0.50;;;;;;;17.97;57.12;98763.13;105232;1282;22553;-70
2022/09/01 09:00:25;;;;;;;2.10;0.60;;;;;;;17.95;56.75;98765.45;105205;1280;137729;-69
2022/09/01 09:03:20;;;;;;;2.60;0.50;;;;;;;18.08;57.07;98764.27;105300;1281;22558;-69
2022/09/01 09:06:03;;;;;;;1.20;0.50;;;;;;;18.28;56.53;98755.94;105273;1281;137864;-68
2022/09/01 09:08:42;;;;;;;2.50;0.90;;;;;;;18.52;57.19;98755.79;105525;1280;24317;-70
2022/09/01 09:11:15;;;;;;;2.10;0.50;;;;;;;18.78;56.90;98758.80;105284;1280;137853;-70
2022/09/01 09:14:10;;;;;;;2.90;0.50;;;;;;;19.00;56.13;98754.34;105344;1281;22565;-70
2022/09/01 09:16:45;;;;;;;1.80;0.50;;;;;;;19.21;54.41;98758.46;105607;1282;31686;-70
2022/09/01 09:19:32;;;;;;;1.70;0.40;;;;;;;19.38;53.14;98752.33;105225;1281;22563;-71
2022/09/01 09:22:04;;;;;;;1.10;0.50;;;;;;;19.54;52.14;98753.01;105022;1282;25438;-71
2022/09/01 09:24:48;;;;;;;4.80;0.60;;;;;;;19.65;51.43;98749.83;105109;1282;137463;-71
2022/09/01 09:27:15;;;;;;;3.20;0.60;;;;;;;19.68;50.61;98742.53;105113;1283;30563;-71
2022/09/01 09:29:44;;;;;;;2.50;0.90;;;;;;;19.77;50.50;98746.58;105226;1282;137292;-71
2022/09/01 09:32:11;;;;;;;3.00;0.60;;;;;;;19.70;50.06;98747.70;105330;1283;25241;-70
2022/09/01 09:34:41;;;;;;;1.60;0.50;;;;;;;19.77;49.79;98747.96;105342;1281;24434;-70
2022/09/01 09:37:28;;;;;;;2.00;0.80;;;;;;;19.73;48.71;98750.10;105240;1281;137011;-70
2022/09/01 09:40:06;;;;;;;1.20;0.60;;;;;;;19.68;48.32;98749.84;105149;1283;24240;-70
2022/09/01 09:42:34;;;;;;;1.70;0.60;;;;;;;19.74;47.99;98749.82;105338;1280;137196;-70
2022/09/01 09:45:03;;;;;;;1.00;0.50;;;;;;;19.77;47.85;98748.35;105590;1280;22620;-71
2022/09/01 09:47:38;;;;;;;1.00;0.50;;;;;;;19.69;48.50;98751.58;105277;1280;137440;-70
2022/09/01 09:50:13;;;;;;;2.30;0.40;;;;;;;19.58;48.92;98749.77;105373;1280;24345;-70
2022/09/01 09:52:42;;;;;;;1.80;0.50;;;;;;;19.70;49.04;98751.37;105489;1280;22579;-70
2022/09/01 09:55:29;;;;;;;0.40;0.40;;;;;;;19.86;48.93;98750.83;105321;1281;137544;-70
2022/09/01 09:58:08;;;;;;;2.10;1.00;;;;;;;20.09;48.26;98747.44;105578;1281;31415;-71
2022/09/01 10:00:35;;;;;;;;;;;;;;;20.38;48.75;98748.23;105502;1281;137678;-69
2022/09/01 10:03:06;;;;;;;0.80;0.30;;;;;;;20.60;46.63;98750.75;105363;1281;22553;-70
2022/09/01 10:05:36;;;;;;;1.30;0.20;;;;;;;20.73;45.09;98749.52;105323;1281;137438;-70
2022/09/01 10:08:07;;;;;;;1.30;0.20;;;;;;;20.79;44.59;98749.63;105553;1280;24391;-70
2022/09/01 10:10:45;;;;;;;0.60;0.40;;;;;;;20.93;44.93;98746.84;105566;1280;24235;-70
2022/09/01 10:13:20;;;;;;;0.50;0.30;;;;;;;21.11;45.18;98746.26;105436;1280;25380;-70
2022/09/01 10:15:52;;;;;;;0.40;0.40;;;;;;;21.28;43.74;98740.55;105403;1281;24276;-70
2022/09/01 10:18:28;;;;;;;1.30;0.30;;;;;;;21.33;43.66;98739.04;105625;1281;137244;-70
2022/09/01 10:21:14;;;;;;;2.50;0.50;;;;;;;21.39;43.67;98735.93;105334;1283;23980;-70
2022/09/01 10:23:42;;;;;;;1.00;0.40;;;;;;;21.51;43.85;98737.66;105244;1281;137555;-71
2022/09/01 10:26:25;;;;;;;0.70;0.30;;;;;;;21.56;42.67;98737.48;105380;1281;22492;-71
2022/09/01 10:29:20;;;;;;;0.80;0.40;;;;;;;21.47;42.48;98736.40;105097;1281;137609;-70
2022/09/01 10:31:47;;;;;;;1.60;0.50;;;;;;;21.47;43.47;98735.56;105075;1282;22763;-70
2022/09/01 10:34:18;;;;;;;1.30;0.50;;;;;;;21.56;43.60;98732.55;105166;1281;22538;-69
2022/09/01 10:36:47;;;;;;;1.50;0.40;;;;;;;21.63;44.01;98733.18;105215;1281;137338;-69
2022/09/01 10:39:17;;;;;;;2.60;0.60;;;;;;;21.58;43.81;98735.71;105142;1283;23936;-69
2022/09/01 10:41:49;;;;;;;1.90;0.60;;;;;;;21.60;43.33;98734.95;105279;1281;137350;-69
2022/09/01 10:44:21;;;;;;;1.60;0.60;;;;;;;21.65;42.54;98734.40;105150;1283;22566;-68
2022/09/01 10:46:49;;;;;;;1.30;0.60;;;;;;;21.71;43.14;98727.55;105265;1281;137441;-69
2022/09/01 10:49:21;;;;;;;1.20;0.40;;;;;;;21.77;43.77;98721.14;105342;1281;24231;-68
2022/09/01 10:51:49;;;;;;;0.60;0.30;;;;;;;21.86;43.70;98725.34;105340;1281;22538;-69
2022/09/01 10:54:38;;;;;;;1.30;0.40;;;;;;;22.04;42.85;98725.48;105236;1281;137272;-69
2022/09/01 10:57:25;;;;;;;;;;;;;;;21.99;41.53;98722.56;105380;1281;22554;-69
2022/09/01 10:59:52;;;;;;;1.00;0.50;;;;;;;22.04;41.33;98724.92;105284;1281;124210;-68
2022/09/01 11:02:23;;;;;;;2.80;0.50;;;;;;;22.09;42.18;98725.56;105314;1281;24246;-68
2022/09/01 11:04:50;;;;;;;1.90;0.60;;;;;;;22.20;42.30;98726.45;105220;1281;137548;-68
2022/09/01 11:07:19;;;;;;;1.90;0.40;;;;;;;22.30;40.62;98727.23;105033;1281;25359;-68
2022/09/01 11:10:18;;;;;;;3.10;0.60;;;;;;;22.11;39.56;98725.63;105461;1281;22644;-67
2022/09/01 11:13:23;;;;;;;0.50;0.40;;;;;;;21.76;40.20;98723.79;105367;1281;137550;-68
2022/09/01 11:15:50;;;;;;;0.60;0.30;;;;;;;21.86;40.20;98722.95;105480;1281;22562;-69
2022/09/01 11:18:29;;;;;;;0.60;0.40;;;;;;;21.95;39.36;98720.02;105500;1281;137246;-69
2022/09/01 11:21:23;;;;;;;1.40;0.50;;;;;;;22.05;40.18;98716.29;105505;1281;22700;-68
2022/09/01 11:23:50;;;;;;;1.40;0.50;;;;;;;22.23;39.26;98717.89;105397;1281;137322;-68
2022/09/01 11:26:47;;;;;;;0.80;0.50;;;;;;;22.37;38.48;98716.19;105520;1281;24499;-69
2022/09/01 11:30:05;;;;;;;0.50;0.40;;;;;;;22.41;36.53;98716.86;104766;1286;137460;-68
2022/09/01 11:32:37;;;;;;;1.20;0.40;;;;;;;22.35;37.30;98714.66;103969;1294;24242;-68
2022/09/01 11:35:13;;;;;;;1.10;0.30;;;;;;;22.41;36.82;98716.08;103736;1295;137765;-68
2022/09/01 11:37:40;;;;;;;0.90;0.50;;;;;;;22.41;36.75;98709.70;103820;1294;24252;-69
2022/09/01 11:40:08;;;;;;;0.50;0.40;;;;;;;22.50;37.48;98710.27;103939;1294;25312;-68
2022/09/01 11:42:42;;;;;;;0.90;0.30;;;;;;;22.62;36.97;98706.45;103802;1293;137209;-68
2022/09/01 11:45:19;;;;;;;1.70;0.40;;;;;;;22.69;36.78;98703.62;103958;1293;24545;-68
2022/09/01 11:47:51;;;;;;;1.00;0.40;;;;;;;22.81;36.78;98706.68;104044;1293;137260;-68
2022/09/01 11:50:31;;;;;;;0.30;0.20;;;;;;;22.93;36.23;98701.23;104357;1294;30287;-68
2022/09/01 11:52:59;;;;;;;3.60;0.50;;;;;;;23.04;35.43;98700.56;103870;1293;137457;-68
2022/09/01 11:55:32;;;;;;;0.20;0.20;;;;;;;23.03;35.38;98698.46;103804;1293;24255;-69